createdAt,value
2019-04-10T00:01:17.390Z,25.73
2019-04-10T00:03:48.289Z,22.50
2019-04-10T00:06:19.041Z,24.00
2019-04-10T00:08:50.526Z,22.07
2019-04-10T00:11:21.084Z,21.77
2019-04-10T00:13:51.459Z,20.87
2019-04-10T00:16:22.417Z,19.57
2019-04-10T00:18:54.007Z,18.00
2019-04-10T00:21:25.174Z,18.47
2019-04-10T00:23:55.909Z,24.33
2019-04-10T00:26:26.239Z,20.60
2019-04-10T00:28:58.389Z,20.00
2019-04-10T00:31:29.705Z,19.03
2019-04-10T00:34:01.009Z,20.90
2019-04-10T00:36:31.677Z,21.87
2019-04-10T00:39:02.358Z,21.53
2019-04-10T00:41:34.498Z,20.87
2019-04-10T00:44:05.855Z,22.57
2019-04-10T00:46:36.463Z,26.97
2019-04-10T00:49:07.196Z,23.67
2019-04-10T00:51:37.875Z,24.93
2019-04-10T00:54:08.173Z,27.50
2019-04-10T00:56:38.965Z,25.67
2019-04-10T00:59:10.255Z,20.07
2019-04-10T01:01:40.691Z,23.57
2019-04-10T01:04:12.278Z,25.30
2019-04-10T01:06:42.714Z,22.07
2019-04-10T01:09:13.239Z,24.63
2019-04-10T01:11:45.550Z,24.90
2019-04-10T01:14:16.293Z,19.80
2019-04-10T01:16:47.919Z,21.83
2019-04-10T01:19:18.311Z,24.23
2019-04-10T01:21:50.675Z,23.50
2019-04-10T01:24:21.675Z,24.40
2019-04-10T01:26:52.295Z,26.90
2019-04-10T01:29:22.616Z,19.57
2019-04-10T01:31:53.157Z,21.17
2019-04-10T01:34:23.787Z,23.13
2019-04-10T01:36:54.628Z,18.43
2019-04-10T01:39:28.559Z,18.93
2019-04-10T01:41:59.239Z,19.17
2019-04-10T01:44:29.569Z,21.30
2019-04-10T01:46:59.925Z,20.90
2019-04-10T01:49:31.472Z,21.67
2019-04-10T01:52:01.975Z,19.27
2019-04-10T01:54:33.190Z,20.80
2019-04-10T01:57:04.113Z,21.87
2019-04-10T01:59:36.298Z,21.20
2019-04-10T02:02:37.000Z,21.57
2019-04-10T02:05:08.164Z,25.00
2019-04-10T02:07:38.508Z,21.93
2019-04-10T02:10:10.059Z,20.27
2019-04-10T02:12:41.021Z,20.30
2019-04-10T02:15:14.488Z,27.37
2019-04-10T02:17:44.527Z,23.27
2019-04-10T02:20:15.954Z,21.67
2019-04-10T02:22:46.282Z,17.93
2019-04-10T02:25:16.592Z,22.17
2019-04-10T02:27:46.915Z,22.53
2019-04-10T02:30:19.778Z,21.93
2019-04-10T02:32:52.395Z,28.27
2019-04-10T02:35:24.574Z,27.20
2019-04-10T02:37:56.239Z,17.87
2019-04-10T02:40:26.727Z,22.57
2019-04-10T02:42:59.080Z,25.07
2019-04-10T02:45:30.264Z,26.50
2019-04-10T02:48:01.693Z,22.73
2019-04-10T02:50:33.249Z,24.57
2019-04-10T02:53:05.386Z,25.43
2019-04-10T02:55:36.752Z,28.83
2019-04-10T02:58:07.955Z,21.23
2019-04-10T03:00:38.724Z,29.33
2019-04-10T03:03:09.451Z,25.50
2019-04-10T03:05:40.670Z,20.93
2019-04-10T03:08:13.051Z,25.00
2019-04-10T03:10:49.578Z,26.53
2019-04-10T03:13:17.874Z,32.27
2019-04-10T03:15:49.826Z,27.10
2019-04-10T03:18:20.993Z,24.67
2019-04-10T03:20:51.637Z,23.83
2019-04-10T03:23:23.010Z,29.10
2019-04-10T03:25:53.747Z,24.07
2019-04-10T03:28:24.966Z,26.83
2019-04-10T03:30:56.461Z,25.17
2019-04-10T03:33:36.060Z,21.63
2019-04-10T03:36:05.275Z,24.50
2019-04-10T03:38:49.861Z,18.23
2019-04-10T03:41:08.196Z,21.37
2019-04-10T03:43:38.691Z,20.23
2019-04-10T03:46:09.037Z,23.70
2019-04-10T03:48:39.341Z,24.77
2019-04-10T03:51:09.673Z,19.13
2019-04-10T03:53:40.374Z,19.53
2019-04-10T03:56:11.714Z,22.20
2019-04-10T03:58:42.401Z,18.63
2019-04-10T04:01:12.704Z,21.43
2019-04-10T04:03:43.055Z,20.33
2019-04-10T04:06:13.391Z,18.07
2019-04-10T04:08:44.543Z,23.17
2019-04-10T04:11:15.624Z,17.03
2019-04-10T04:13:46.309Z,20.20
2019-04-10T04:16:17.127Z,15.27
2019-04-10T04:18:47.572Z,16.40
2019-04-10T04:21:17.919Z,26.23
2019-04-10T04:23:48.306Z,19.23
2019-04-10T04:26:19.083Z,28.50
2019-04-10T04:28:49.635Z,31.77
2019-04-10T04:31:20.241Z,20.73
2019-04-10T04:33:50.649Z,19.83
2019-04-10T04:36:21.147Z,22.40
2019-04-10T04:38:51.539Z,22.20
2019-04-10T04:41:21.866Z,24.50
2019-04-10T04:43:53.252Z,31.30
2019-04-10T04:46:23.991Z,27.57
2019-04-10T04:48:54.711Z,24.67
2019-04-10T04:51:25.966Z,29.77
2019-04-10T04:53:56.960Z,23.10
2019-04-10T04:56:28.508Z,37.03
2019-04-10T04:58:59.719Z,21.07
2019-04-10T05:01:31.797Z,23.97
2019-04-10T05:04:02.585Z,28.53
2019-04-10T05:06:35.061Z,24.30
2019-04-10T05:09:07.123Z,43.63
2019-04-10T05:11:38.418Z,51.20
2019-04-10T05:14:09.321Z,28.70
2019-04-10T05:16:39.647Z,25.97
2019-04-10T05:19:10.267Z,23.67
2019-04-10T05:21:41.499Z,28.57
2019-04-10T05:24:12.167Z,18.87
2019-04-10T05:26:42.853Z,23.37
2019-04-10T05:29:13.441Z,18.77
2019-04-10T05:31:44.661Z,25.73
2019-04-10T05:34:15.733Z,15.37
2019-04-10T05:36:46.993Z,19.80
2019-04-10T05:39:17.455Z,16.20
2019-04-10T05:41:48.463Z,20.57
2019-04-10T05:44:20.100Z,18.57
2019-04-10T05:46:50.788Z,17.47
2019-04-10T05:49:21.175Z,17.73
2019-04-10T05:51:51.457Z,12.03
2019-04-10T05:54:22.566Z,17.50
2019-04-10T05:56:52.952Z,21.23
2019-04-10T05:59:23.914Z,19.00
2019-04-10T06:01:54.493Z,16.97
2019-04-10T06:04:25.256Z,17.43
2019-04-10T06:06:56.761Z,20.80
2019-04-10T06:09:27.394Z,29.97
2019-04-10T06:11:57.748Z,24.93
2019-04-10T06:14:28.321Z,23.30
2019-04-10T06:17:02.395Z,21.43
2019-04-10T06:19:32.219Z,21.23
2019-04-10T06:22:03.188Z,27.07
2019-04-10T06:24:34.229Z,19.20
2019-04-10T06:27:05.393Z,18.07
2019-04-10T06:29:37.168Z,23.33
2019-04-10T06:32:07.668Z,22.20
2019-04-10T06:34:38.380Z,20.80
2019-04-10T06:37:10.186Z,17.40
2019-04-10T06:39:43.405Z,21.50
2019-04-10T06:42:14.098Z,23.50
2019-04-10T06:44:44.634Z,17.77
2019-04-10T06:47:14.959Z,17.23
2019-04-10T06:49:45.684Z,13.27
2019-04-10T06:52:16.664Z,13.27
2019-04-10T06:54:47.334Z,15.07
2019-04-10T06:57:18.682Z,23.77
2019-04-10T06:59:50.265Z,28.93
2019-04-10T07:02:26.995Z,17.57
2019-04-10T07:04:55.980Z,19.57
2019-04-10T07:07:27.219Z,36.83
2019-04-10T07:09:57.457Z,13.63
2019-04-10T07:12:33.527Z,18.03
2019-04-10T07:15:02.383Z,18.43
2019-04-10T07:17:37.545Z,20.47
2019-04-10T07:20:07.509Z,12.77
2019-04-10T07:22:44.673Z,16.67
2019-04-10T07:25:13.140Z,14.80
2019-04-10T07:27:44.499Z,17.97
2019-04-10T07:30:17.325Z,22.17
2019-04-10T07:32:49.236Z,13.53
2019-04-10T07:35:21.835Z,18.13
2019-04-10T07:37:54.311Z,18.20
2019-04-10T07:40:24.852Z,15.30
2019-04-10T07:42:55.310Z,19.53
2019-04-10T07:45:27.215Z,18.03
2019-04-10T07:47:57.709Z,19.17
2019-04-10T07:50:28.231Z,17.80
2019-04-10T07:52:59.795Z,12.73
2019-04-10T07:55:30.940Z,17.23
2019-04-10T07:58:01.390Z,18.77
2019-04-10T08:00:32.046Z,13.70
2019-04-10T08:03:02.488Z,20.30
2019-04-10T08:05:33.298Z,21.20
2019-04-10T08:08:05.037Z,19.47
2019-04-10T08:10:35.518Z,19.30
2019-04-10T08:13:06.514Z,16.53
2019-04-10T08:15:37.793Z,20.53
2019-04-10T08:18:08.198Z,18.13
2019-04-10T08:20:38.532Z,16.60
2019-04-10T08:23:09.007Z,15.37
2019-04-10T08:25:40.829Z,17.03
2019-04-10T08:28:11.654Z,14.97
2019-04-10T08:30:42.012Z,17.93
2019-04-10T08:33:12.436Z,13.47
2019-04-10T08:35:42.738Z,13.23
2019-04-10T08:38:13.172Z,16.63
2019-04-10T08:40:43.874Z,14.40
2019-04-10T08:43:14.476Z,19.97
2019-04-10T08:45:48.453Z,20.87
2019-04-10T08:48:17.716Z,16.23
2019-04-10T08:50:48.243Z,16.57
2019-04-10T08:53:18.619Z,10.87
2019-04-10T08:55:48.937Z,13.47
2019-04-10T08:58:19.332Z,11.73
2019-04-10T09:00:51.479Z,17.97
2019-04-10T09:03:22.464Z,11.23
2019-04-10T09:05:53.206Z,11.17
2019-04-10T09:08:24.586Z,16.60
2019-04-10T09:10:55.352Z,14.83
2019-04-10T09:13:25.953Z,33.27
2019-04-10T09:15:56.400Z,12.83
2019-04-10T09:18:27.361Z,17.53
2019-04-10T09:20:57.875Z,14.13
2019-04-10T09:23:39.063Z,13.20
2019-04-10T09:26:00.234Z,12.07
2019-04-10T09:28:30.731Z,13.13
2019-04-10T09:31:02.792Z,15.30
2019-04-10T09:33:33.128Z,14.53
2019-04-10T09:36:04.699Z,15.33
2019-04-10T09:38:35.420Z,11.23
2019-04-10T09:41:05.758Z,12.27
2019-04-10T09:43:36.120Z,14.13
2019-04-10T09:46:08.416Z,9.57
2019-04-10T09:48:42.071Z,17.07
2019-04-10T09:51:15.361Z,15.47
2019-04-10T09:53:45.684Z,12.27
2019-04-10T09:56:17.028Z,13.03
2019-04-10T09:58:47.695Z,12.23
2019-04-10T10:01:18.576Z,11.87
2019-04-10T10:03:48.914Z,12.30
2019-04-10T10:06:27.057Z,8.63
2019-04-10T10:08:52.317Z,14.10
2019-04-10T10:11:23.009Z,15.10
2019-04-10T10:13:54.271Z,12.40
2019-04-10T10:16:25.502Z,11.22
2019-04-10T10:18:55.986Z,13.98
2019-04-10T10:21:26.352Z,11.60
2019-04-10T10:23:58.255Z,11.30
2019-04-10T10:26:28.810Z,14.57
2019-04-10T10:28:59.206Z,13.77
2019-04-10T10:31:30.746Z,10.97
2019-04-10T10:34:01.914Z,12.07
2019-04-10T10:36:40.808Z,10.73
2019-04-10T10:39:13.013Z,9.35
2019-04-10T10:41:44.802Z,11.93
2019-04-10T10:44:15.204Z,13.10
2019-04-10T10:46:45.564Z,9.77
2019-04-10T10:49:15.995Z,11.03
2019-04-10T10:51:46.812Z,9.78
2019-04-10T10:54:18.931Z,8.23
2019-04-10T10:56:49.385Z,9.60
2019-04-10T10:59:19.889Z,11.35
2019-04-10T11:01:50.309Z,14.90
2019-04-10T11:04:21.080Z,11.83
2019-04-10T11:06:59.701Z,13.10
2019-04-10T11:09:23.936Z,11.35
2019-04-10T11:11:54.244Z,8.75
2019-04-10T11:14:25.354Z,11.00
2019-04-10T11:16:56.239Z,13.05
2019-04-10T11:19:27.205Z,9.45
2019-04-10T11:21:58.693Z,9.60
2019-04-10T11:24:29.228Z,15.13
2019-04-10T11:27:00.059Z,12.50
2019-04-10T11:29:31.491Z,8.63
2019-04-10T11:32:04.123Z,10.98
2019-04-10T11:34:35.608Z,12.00
2019-04-10T11:37:19.217Z,16.10
2019-04-10T11:39:43.261Z,10.35
2019-04-10T11:42:10.399Z,9.95
2019-04-10T11:44:42.519Z,11.83
2019-04-10T11:47:12.694Z,8.60
2019-04-10T11:49:44.796Z,8.93
2019-04-10T11:52:17.284Z,9.55
2019-04-10T11:54:49.098Z,10.97
2019-04-10T11:57:20.457Z,9.83
2019-04-10T11:59:51.060Z,32.53
2019-04-10T12:02:24.866Z,12.50
2019-04-10T12:05:01.615Z,9.70
2019-04-10T12:07:54.891Z,11.03
2019-04-10T12:12:30.914Z,13.03
2019-04-10T12:15:01.939Z,9.08
2019-04-10T12:17:34.153Z,10.25
2019-04-10T12:20:06.954Z,8.95
2019-04-10T12:22:37.952Z,7.45
2019-04-10T12:25:08.867Z,9.90
2019-04-10T12:27:39.317Z,13.10
2019-04-10T12:30:11.115Z,9.38
2019-04-10T12:32:41.676Z,10.20
2019-04-10T12:35:13.686Z,10.03
2019-04-10T12:37:44.008Z,11.10
2019-04-10T12:40:14.855Z,11.93
2019-04-10T12:42:46.176Z,10.03
2019-04-10T12:45:16.873Z,14.03
2019-04-10T12:47:48.115Z,15.00
2019-04-10T12:50:18.679Z,10.23
2019-04-10T12:52:49.323Z,10.63
2019-04-10T12:55:20.581Z,11.40
2019-04-10T12:57:51.205Z,11.77
2019-04-10T13:00:23.713Z,10.60
2019-04-10T13:02:54.585Z,9.40
2019-04-10T13:05:25.345Z,12.90
2019-04-10T13:07:56.162Z,11.40
2019-04-10T13:10:27.432Z,10.13
2019-04-10T13:12:57.927Z,13.00
2019-04-10T13:15:29.690Z,10.47
2019-04-10T13:18:00.318Z,9.10
2019-04-10T13:20:31.623Z,14.17
2019-04-10T13:23:02.452Z,16.53
2019-04-10T13:25:34.400Z,9.77
2019-04-10T13:28:05.509Z,9.00
2019-04-10T13:30:46.653Z,12.53
2019-04-10T13:33:09.364Z,10.67
2019-04-10T13:35:40.026Z,11.17
2019-04-10T13:38:10.818Z,12.17
2019-04-10T13:40:41.704Z,17.27
2019-04-10T13:43:12.029Z,12.93
2019-04-10T13:45:42.310Z,15.03
2019-04-10T13:48:13.137Z,9.37
2019-04-10T13:50:43.938Z,13.57
2019-04-10T13:53:15.476Z,16.40
2019-04-10T13:55:46.075Z,13.17
2019-04-10T13:58:17.265Z,13.70
2019-04-10T14:00:49.684Z,11.53
2019-04-10T14:03:22.570Z,13.80
2019-04-10T14:05:53.271Z,11.13
2019-04-10T14:08:40.531Z,11.37
2019-04-10T14:10:57.104Z,9.33
2019-04-10T14:13:27.995Z,12.93
2019-04-10T14:15:58.756Z,13.70
2019-04-10T14:18:29.105Z,17.10
2019-04-10T14:20:59.651Z,11.47
2019-04-10T14:23:31.430Z,12.03
2019-04-10T14:26:17.230Z,15.53
2019-04-10T14:28:49.272Z,11.47
2019-04-10T14:31:32.191Z,10.67
2019-04-10T14:34:03.885Z,11.13
2019-04-10T14:36:35.921Z,12.13
2019-04-10T14:39:17.506Z,11.00
2019-04-10T14:41:46.096Z,12.40
2019-04-10T14:44:17.830Z,16.93
2019-04-10T14:46:48.305Z,12.23
2019-04-10T14:49:18.764Z,15.60
2019-04-10T14:51:49.445Z,13.53
2019-04-10T14:54:20.053Z,25.87
2019-04-10T14:56:50.528Z,14.70
2019-04-10T14:59:22.062Z,13.57
2019-04-10T15:01:52.668Z,12.43
2019-04-10T15:04:24.514Z,13.60
2019-04-10T15:06:55.544Z,13.13
2019-04-10T15:09:26.351Z,15.37
2019-04-10T15:11:57.308Z,18.93
2019-04-10T15:14:30.111Z,14.97
2019-04-10T15:17:04.493Z,12.60
2019-04-10T15:19:34.335Z,17.70
2019-04-10T15:22:04.864Z,15.93
2019-04-10T15:24:35.609Z,17.47
2019-04-10T15:27:06.171Z,13.20
2019-04-10T15:29:36.958Z,12.73
2019-04-10T15:32:08.366Z,20.80
2019-04-10T15:34:39.596Z,16.23
2019-04-10T15:37:11.022Z,12.67
2019-04-10T15:39:44.725Z,11.70
2019-04-10T15:42:16.244Z,16.53
2019-04-10T15:44:48.119Z,11.30
2019-04-10T15:47:22.303Z,12.30
2019-04-10T15:49:51.644Z,17.83
2019-04-10T15:52:23.490Z,12.70
2019-04-10T15:54:55.339Z,14.90
2019-04-10T15:57:26.930Z,13.90
2019-04-10T15:59:57.493Z,17.40
2019-04-10T16:02:28.034Z,13.37
2019-04-10T16:04:59.395Z,18.33
2019-04-10T16:07:30.825Z,17.73
2019-04-10T16:10:13.299Z,15.70
2019-04-10T16:12:44.032Z,15.17
2019-04-10T16:15:15.277Z,16.77
2019-04-10T16:17:52.545Z,20.43
2019-04-10T16:20:30.776Z,18.77
2019-04-10T16:23:28.689Z,18.23
2019-04-10T16:25:59.124Z,16.40
2019-04-10T16:28:29.534Z,20.37
2019-04-10T16:30:59.981Z,19.37
2019-04-10T16:33:31.437Z,16.97
2019-04-10T16:36:03.068Z,20.63
2019-04-10T16:38:33.570Z,16.53
2019-04-10T16:41:04.733Z,21.20
2019-04-10T16:43:36.288Z,17.40
2019-04-10T16:46:07.098Z,20.67
2019-04-10T16:48:37.908Z,21.80
2019-04-10T16:51:08.643Z,17.83
2019-04-10T16:53:39.439Z,19.63
2019-04-10T16:56:09.788Z,23.83
2019-04-10T16:58:41.583Z,30.57
2019-04-10T17:01:13.247Z,18.23
2019-04-10T17:03:44.220Z,16.33
2019-04-10T17:06:14.843Z,17.47
2019-04-10T17:08:45.964Z,22.87
2019-04-10T17:11:16.776Z,16.10
2019-04-10T17:13:47.254Z,21.33
2019-04-10T17:16:19.801Z,21.60
2019-04-10T17:18:51.711Z,14.33
2019-04-10T17:21:22.779Z,15.47
2019-04-10T17:23:53.282Z,19.77
2019-04-10T17:26:24.742Z,18.00
2019-04-10T17:28:55.255Z,13.63
2019-04-10T17:31:26.641Z,19.30
2019-04-10T17:33:58.593Z,15.20
2019-04-10T17:36:30.188Z,22.70
2019-04-10T17:39:00.801Z,22.37
2019-04-10T17:41:33.385Z,15.37
2019-04-10T17:44:03.907Z,18.87
2019-04-10T17:46:35.257Z,20.07
2019-04-10T17:49:05.916Z,29.37
2019-04-10T17:51:36.448Z,17.37
2019-04-10T17:54:06.986Z,17.47
2019-04-10T17:56:40.534Z,16.17
2019-04-10T17:59:11.305Z,15.27
2019-04-10T18:01:41.738Z,16.33
2019-04-10T18:04:12.080Z,18.03
2019-04-10T18:06:44.563Z,20.47
2019-04-10T18:09:15.851Z,24.60
2019-04-10T18:11:46.463Z,16.57
2019-04-10T18:14:17.394Z,15.87
2019-04-10T18:16:48.112Z,14.47
2019-04-10T18:19:19.121Z,17.80
2019-04-10T18:21:50.128Z,22.90
2019-04-10T18:24:20.473Z,15.93
2019-04-10T18:26:52.704Z,16.23
2019-04-10T18:29:23.310Z,48.13
2019-04-10T18:31:53.884Z,62.07
2019-04-10T18:34:25.486Z,19.87
2019-04-10T18:36:56.639Z,21.73
2019-04-10T18:39:26.977Z,17.33
2019-04-10T18:41:59.472Z,20.67
2019-04-10T18:44:29.473Z,20.93
2019-04-10T18:47:00.696Z,17.83
2019-04-10T18:49:31.624Z,23.33
2019-04-10T18:52:03.336Z,15.87
2019-04-10T18:54:34.061Z,16.63
2019-04-10T18:57:05.359Z,27.77
2019-04-10T18:59:59.147Z,19.90
2019-04-10T19:03:03.713Z,22.97
2019-04-10T19:05:38.354Z,20.13
2019-04-10T19:08:12.485Z,21.83
2019-04-10T19:10:43.234Z,20.33
2019-04-10T19:13:14.986Z,27.17
2019-04-10T19:15:46.740Z,35.57
2019-04-10T19:18:19.865Z,21.20
2019-04-10T19:20:51.572Z,18.90
2019-04-10T19:23:23.886Z,17.83
2019-04-10T19:25:54.737Z,19.13
2019-04-10T19:28:32.225Z,21.47
2019-04-10T19:31:11.543Z,15.43
2019-04-10T19:33:37.363Z,22.43
2019-04-10T19:36:07.957Z,25.17
2019-04-10T19:38:38.430Z,24.57
2019-04-10T19:41:21.213Z,19.77
2019-04-10T19:43:42.219Z,18.10
2019-04-10T19:46:13.019Z,20.13
2019-04-10T19:48:48.380Z,20.20
2019-04-10T19:51:18.284Z,26.27
2019-04-10T19:53:49.276Z,23.67
2019-04-10T19:56:20.240Z,24.03
2019-04-10T19:58:50.845Z,45.57
2019-04-10T20:01:24.094Z,21.17
2019-04-10T20:03:54.224Z,22.30
2019-04-10T20:06:25.285Z,22.47
2019-04-10T20:08:57.819Z,22.13
2019-04-10T20:11:37.554Z,18.17
2019-04-10T20:14:01.624Z,21.53
2019-04-10T20:16:33.294Z,23.70
2019-04-10T20:19:03.741Z,20.17
2019-04-10T20:21:34.276Z,30.10
2019-04-10T20:24:04.848Z,24.03
2019-04-10T20:26:35.271Z,27.40
2019-04-10T20:29:06.692Z,29.37
2019-04-10T20:31:37.897Z,22.00
2019-04-10T20:34:09.730Z,25.13
2019-04-10T20:36:40.192Z,26.47
2019-04-10T20:39:12.874Z,24.00
2019-04-10T20:41:49.823Z,23.60
2019-04-10T20:44:16.492Z,19.37
2019-04-10T20:46:48.680Z,23.30
2019-04-10T20:49:20.400Z,24.63
2019-04-10T20:51:50.899Z,25.83
2019-04-10T20:54:22.529Z,29.47
2019-04-10T20:56:53.067Z,23.90
2019-04-10T20:59:24.370Z,24.63
2019-04-10T21:01:55.814Z,21.43
2019-04-10T21:04:27.398Z,21.43
2019-04-10T21:06:58.608Z,22.80
2019-04-10T21:09:29.862Z,29.57
2019-04-10T21:12:08.199Z,20.43
2019-04-10T21:14:33.684Z,26.73
2019-04-10T21:17:04.724Z,19.93
2019-04-10T21:19:35.562Z,30.57
2019-04-10T21:22:06.303Z,23.03
2019-04-10T21:24:37.620Z,25.67
2019-04-10T21:27:09.172Z,23.77
2019-04-10T21:29:51.067Z,27.80
2019-04-10T21:32:30.441Z,19.27
2019-04-10T21:35:02.059Z,23.00
2019-04-10T21:37:32.792Z,29.20
2019-04-10T21:40:04.495Z,25.20
2019-04-10T21:42:34.897Z,26.33
2019-04-10T21:45:06.071Z,30.03
2019-04-10T21:47:37.559Z,28.27
2019-04-10T21:50:08.971Z,27.73
2019-04-10T21:52:39.340Z,26.83
2019-04-10T21:55:10.680Z,26.60
2019-04-10T21:57:42.535Z,25.37
2019-04-10T22:00:15.046Z,25.93
2019-04-10T22:02:46.980Z,26.10
2019-04-10T22:05:17.386Z,24.47
2019-04-10T22:08:03.085Z,28.30
2019-04-10T22:10:39.736Z,29.90
2019-04-10T22:13:11.078Z,33.53
2019-04-10T22:15:44.922Z,32.50
2019-04-10T22:18:16.975Z,28.50
2019-04-10T22:20:47.991Z,30.27
2019-04-10T22:23:18.873Z,34.17
2019-04-10T22:25:50.169Z,31.80
2019-04-10T22:28:21.686Z,26.63
2019-04-10T22:30:52.667Z,37.63
2019-04-10T22:33:24.372Z,27.70
2019-04-10T22:35:55.954Z,27.03
2019-04-10T22:38:27.233Z,28.77
2019-04-10T22:40:58.104Z,26.13
2019-04-10T22:43:30.042Z,39.20
2019-04-10T22:46:00.508Z,29.47
2019-04-10T22:48:30.904Z,26.30
2019-04-10T22:51:03.385Z,31.17
2019-04-10T22:53:34.221Z,24.57
2019-04-10T22:56:05.210Z,28.03
2019-04-10T22:58:35.616Z,27.23
2019-04-10T23:01:06.874Z,32.27
2019-04-10T23:03:38.729Z,31.70
2019-04-10T23:06:09.172Z,31.03
2019-04-10T23:08:39.874Z,29.83
2019-04-10T23:11:10.334Z,27.80
2019-04-10T23:13:40.710Z,32.33
2019-04-10T23:16:14.208Z,28.83
2019-04-10T23:18:45.590Z,36.53
2019-04-10T23:21:17.074Z,25.93
2019-04-10T23:23:48.687Z,31.13
2019-04-10T23:26:20.669Z,25.97
2019-04-10T23:28:51.761Z,33.27
2019-04-10T23:31:22.072Z,31.67
2019-04-10T23:33:52.476Z,33.30
2019-04-10T23:36:23.539Z,31.63
2019-04-10T23:38:55.529Z,30.33
2019-04-10T23:41:26.126Z,32.33
2019-04-10T23:43:56.821Z,26.77
2019-04-10T23:46:28.316Z,30.03
2019-04-10T23:49:00.058Z,32.97
2019-04-10T23:51:31.462Z,32.37
2019-04-10T23:54:02.822Z,30.73
2019-04-10T23:56:33.636Z,29.93
2019-04-10T23:59:04.568Z,30.73
